Time;durP1;ratioP1;P1;durP2;ratioP2;P2;SDS_P1;SDS_P2;PMS_P1;PMS_P2;Temp;Humidity;BMP_temperature;BMP_pressure;BME280_temperature;BME280_humidity;BME280_pressure;Samples;Min_cycle;Max_cycle;Signal;HPM_P1;HPM_P2
2023/07/26 00:00:59;;;;;;;10.80;7.00;;;;;;;19.15;76.48;97796.57;223433;181;145798;-63
2023/07/26 00:06:09;;;;;;;8.40;6.30;;;;;;;19.08;76.63;97800.80;223490;185;138086;-63
2023/07/26 00:11:12;;;;;;;9.90;5.30;;;;;;;19.04;76.79;97799.27;223516;215;137375;-63
2023/07/26 00:16:16;;;;;;;8.20;5.30;;;;;;;19.04;76.55;97799.69;223553;182;146814;-62
2023/07/26 00:21:19;;;;;;;9.30;5.90;;;;;;;19.08;76.28;97792.14;223455;181;138158;-63
2023/07/26 00:26:23;;;;;;;11.50;6.40;;;;;;;19.10;76.15;97784.16;223499;181;137058;-62
2023/07/26 00:31:26;;;;;;;8.50;6.20;;;;;;;19.10;76.05;97791.34;223443;181;146263;-63
2023/07/26 00:36:30;;;;;;;8.60;6.20;;;;;;;19.04;76.03;97789.20;223438;181;138439;-63
2023/07/26 00:41:34;;;;;;;9.60;5.90;;;;;;;18.96;76.21;97797.68;223594;215;136891;-63
2023/07/26 00:46:42;;;;;;;9.00;6.00;;;;;;;18.95;76.40;97796.40;223498;215;145743;-63
2023/07/26 00:51:45;;;;;;;12.50;6.90;;;;;;;18.98;76.49;97796.58;223480;181;138443;-63
2023/07/26 00:56:49;;;;;;;11.30;7.00;;;;;;;18.99;76.57;97795.52;223532;181;136555;-63
2023/07/26 01:01:53;;;;;;;10.70;7.10;;;;;;;19.00;76.58;97796.84;223481;181;145296;-63
2023/07/26 01:07:19;;;;;;;15.60;8.20;;;;;;;19.01;76.63;97795.65;223451;182;138530;-63
2023/07/26 01:12:29;;;;;;;12.40;7.60;;;;;;;18.98;76.89;97792.61;223518;181;137356;-62
2023/07/26 01:17:32;;;;;;;13.70;9.20;;;;;;;18.96;76.94;97779.35;223590;215;146130;-64
2023/07/26 01:22:36;;;;;;;17.20;9.70;;;;;;;18.94;77.02;97771.70;223504;181;139407;-63
2023/07/26 01:27:39;;;;;;;13.90;10.10;;;;;;;18.94;77.16;97770.02;223439;183;137256;-63
2023/07/26 01:32:49;;;;;;;13.90;10.20;;;;;;;18.96;77.18;97779.89;223477;182;145026;-63
2023/07/26 01:37:54;;;;;;;14.90;9.90;;;;;;;18.99;77.12;97776.86;223459;181;138362;-66
2023/07/26 01:42:58;;;;;;;;;;;;;;;18.97;77.26;97773.31;223493;182;136717;-64
2023/07/26 01:48:03;;;;;;;14.40;10.00;;;;;;;18.96;77.14;97776.55;223615;181;145326;-63
2023/07/26 01:53:07;;;;;;;17.40;11.10;;;;;;;18.93;77.17;97788.16;223548;215;139135;-64
2023/07/26 01:58:10;;;;;;;16.60;11.60;;;;;;;18.89;77.31;97793.65;223607;182;136984;-63
2023/07/26 02:03:13;;;;;;;16.50;11.40;;;;;;;18.89;77.47;97789.54;223515;182;145943;-64
2023/07/26 02:08:17;;;;;;;15.80;12.20;;;;;;;18.86;77.47;97788.11;223378;181;138938;-67
2023/07/26 02:13:21;;;;;;;15.90;11.10;;;;;;;18.80;77.72;97795.05;223502;215;137634;-65
2023/07/26 02:18:25;;;;;;;17.80;10.60;;;;;;;18.79;77.89;97792.16;223409;181;146231;-65
2023/07/26 02:23:28;;;;;;;14.40;10.70;;;;;;;18.81;77.86;97785.04;223474;207;138353;-64
2023/07/26 02:28:32;;;;;;;18.40;11.30;;;;;;;18.83;77.91;97787.89;223449;181;137165;-64
2023/07/26 02:33:35;;;;;;;15.30;11.60;;;;;;;18.85;77.84;97794.36;223450;182;145197;-65
2023/07/26 02:38:39;;;;;;;21.30;13.10;;;;;;;18.85;77.74;97791.11;223455;181;138904;-65
2023/07/26 02:43:42;;;;;;;16.30;11.40;;;;;;;18.83;77.83;97787.02;223420;181;137342;-65
2023/07/26 02:48:45;;;;;;;20.90;12.00;;;;;;;18.84;77.81;97791.35;223418;181;145280;-65
2023/07/26 02:53:49;;;;;;;22.50;12.60;;;;;;;18.88;77.89;97794.80;223485;215;138347;-65
2023/07/26 02:58:53;;;;;;;21.60;12.90;;;;;;;18.92;77.88;97795.52;223509;181;137633;-65
2023/07/26 03:03:56;;;;;;;20.80;12.80;;;;;;;18.95;77.63;97787.45;223513;183;145207;-66
2023/07/26 03:09:00;;;;;;;18.90;13.10;;;;;;;18.92;77.63;97775.58;223459;182;139800;-66
2023/07/26 03:14:03;;;;;;;19.10;12.60;;;;;;;18.87;77.77;97773.95;223488;186;137030;-66
2023/07/26 03:19:06;;;;;;;16.80;11.70;;;;;;;18.85;77.92;97782.61;223480;182;145113;-66
2023/07/26 03:24:10;;;;;;;21.00;12.00;;;;;;;18.88;78.13;97786.79;223493;181;138410;-65
2023/07/26 03:29:13;;;;;;;18.40;12.30;;;;;;;18.94;77.82;97793.45;223421;215;137840;-66
2023/07/26 03:34:19;;;;;;;20.80;13.10;;;;;;;18.98;77.66;97795.54;223490;193;147359;-65
2023/07/26 03:39:22;;;;;;;20.40;12.90;;;;;;;18.94;77.53;97810.88;223510;181;138121;-65
2023/07/26 03:44:26;;;;;;;25.00;13.00;;;;;;;18.92;77.80;97809.31;223518;181;137652;-65
2023/07/26 03:49:29;;;;;;;20.40;12.80;;;;;;;18.91;77.89;97812.55;223482;182;148127;-64
2023/07/26 03:54:33;;;;;;;21.00;13.20;;;;;;;18.95;77.66;97814.39;223485;182;139188;-63
2023/07/26 04:02:08;;;;;;;22.10;13.90;;;;;;;19.02;77.84;97798.61;220136;193;665586;-64
2023/07/26 04:07:12;;;;;;;22.60;14.00;;;;;;;19.03;77.71;97801.58;223483;182;136434;-64
2023/07/26 04:12:15;;;;;;;23.60;12.80;;;;;;;19.02;77.66;97800.10;223523;182;144261;-61
2023/07/26 04:17:19;;;;;;;22.20;12.40;;;;;;;19.02;77.57;97800.98;223512;204;138178;-63
2023/07/26 04:22:23;;;;;;;21.80;13.70;;;;;;;19.03;77.38;97815.94;223579;216;137169;-64
2023/07/26 04:27:26;;;;;;;20.20;13.30;;;;;;;19.03;77.27;97823.65;223918;181;144038;-64
2023/07/26 04:32:29;;;;;;;23.20;13.40;;;;;;;19.02;77.31;97823.05;223810;181;138051;-64
2023/07/26 04:37:34;;;;;;;27.70;12.90;;;;;;;19.08;77.27;97830.13;223771;180;137464;-65
2023/07/26 04:42:37;;;;;;;21.10;13.10;;;;;;;19.11;77.45;97827.70;223922;180;143470;-63
2023/07/26 04:47:40;;;;;;;20.70;12.50;;;;;;;19.20;77.35;97833.08;223793;214;138991;-64
2023/07/26 04:52:43;;;;;;;25.90;17.00;;;;;;;19.25;77.16;97833.19;223764;180;136842;-62
2023/07/26 07:05:41;;;;;;;10.80;6.50;;;;;;;20.29;72.60;97850.80;221859;192;691974;-64
2023/07/26 07:10:45;;;;;;;121.70;91.80;;;;;;;20.51;72.80;97853.58;223045;186;136912;-64
2023/07/26 07:15:54;;;;;;;20.60;14.60;;;;;;;20.76;72.40;97857.95;223491;183;143485;-64
2023/07/26 07:21:00;;;;;;;12.90;6.40;;;;;;;20.90;71.79;97868.61;223382;183;138142;-64
2023/07/26 07:26:04;;;;;;;12.20;5.90;;;;;;;20.97;71.44;97870.57;223366;183;137197;-65
2023/07/26 07:31:07;;;;;;;10.10;5.00;;;;;;;20.97;70.76;97865.79;223470;182;143453;-64
2023/07/26 07:36:15;;;;;;;140.80;111.40;;;;;;;20.97;70.45;97863.58;223540;194;138156;-65
2023/07/26 07:41:18;;;;;;;15.20;6.20;;;;;;;21.02;70.11;97865.89;223510;182;137755;-65
2023/07/26 07:46:22;;;;;;;9.40;5.00;;;;;;;21.05;69.77;97859.67;223524;181;143990;-64
2023/07/26 07:51:25;;;;;;;16.30;4.80;;;;;;;21.13;69.51;97850.31;223481;183;160105;-64
2023/07/26 07:56:28;;;;;;;137.00;112.90;;;;;;;21.15;69.33;97859.58;223505;182;137220;-65
2023/07/26 08:01:33;;;;;;;12.90;5.80;;;;;;;21.20;68.86;97869.91;223595;183;147721;-65
2023/07/26 08:06:37;;;;;;;11.60;5.00;;;;;;;21.22;68.22;97865.11;223562;183;138397;-65
2023/07/26 08:11:40;;;;;;;9.40;4.40;;;;;;;21.19;67.69;97859.99;223381;183;137557;-64
2023/07/26 08:16:43;;;;;;;45.30;34.30;;;;;;;21.10;67.36;97881.54;223608;183;144984;-64
2023/07/26 08:21:47;;;;;;;6.80;4.30;;;;;;;20.96;67.16;97899.09;223474;183;138478;-64
2023/07/26 08:26:52;;;;;;;7.00;4.40;;;;;;;20.86;67.65;97898.15;223559;184;138350;-64
2023/07/26 08:32:04;;;;;;;18.30;6.30;;;;;;;20.82;67.74;97897.19;223737;182;145097;-64
2023/07/26 08:37:18;;;;;;;6.60;5.30;;;;;;;20.76;67.87;97886.95;223594;182;139094;-68
2023/07/26 08:42:31;;;;;;;10.90;5.10;;;;;;;20.75;69.08;97898.17;223777;182;136868;-66
2023/07/26 08:47:35;;;;;;;67.40;55.70;;;;;;;20.89;69.53;97901.59;223709;182;145768;-64
2023/07/26 08:52:54;;;;;;;11.40;5.60;;;;;;;20.84;68.34;97914.13;223674;183;139205;-63
2023/07/26 08:57:58;;;;;;;12.80;6.70;;;;;;;20.60;68.57;97919.71;223759;183;137668;-63
2023/07/26 09:03:04;;;;;;;8.60;4.90;;;;;;;20.51;69.32;97928.68;223693;182;145009;-62
2023/07/26 09:08:08;;;;;;;10.70;5.00;;;;;;;20.35;69.38;97933.64;223619;181;139187;-63
2023/07/26 09:13:13;;;;;;;7.20;5.00;;;;;;;20.20;70.07;97937.27;223743;181;137187;-63
2023/07/26 09:18:20;;;;;;;9.10;5.00;;;;;;;20.17;70.18;97940.83;223721;181;145242;-63
2023/07/26 09:23:24;;;;;;;6.70;4.00;;;;;;;20.09;70.30;97945.26;223669;181;139918;-64
2023/07/26 09:28:33;;;;;;;6.10;3.40;;;;;;;19.96;70.42;97943.80;223731;182;137240;-63
2023/07/26 09:33:43;;;;;;;5.10;3.80;;;;;;;19.89;70.76;97948.95;223521;182;145757;-63
2023/07/26 09:38:47;;;;;;;40.10;28.30;;;;;;;19.89;70.65;97959.38;223607;182;138544;-62
2023/07/26 09:43:51;;;;;;;5.80;4.80;;;;;;;19.79;70.48;97966.30;223690;182;137284;-64
2023/07/26 09:49:02;;;;;;;47.80;35.70;;;;;;;19.70;70.84;97967.32;223670;182;144860;-61
2023/07/26 10:02:12;;;;;;;102.40;85.20;;;;;;;19.63;70.33;97985.20;221886;193;666283;-63
2023/07/26 10:07:15;;;;;;;7.20;3.70;;;;;;;19.55;71.02;97994.60;223598;183;137042;-60
2023/07/26 10:12:23;;;;;;;3.80;2.90;;;;;;;19.58;70.70;97999.95;223787;181;143248;-63
2023/07/26 10:17:26;;;;;;;5.10;3.20;;;;;;;19.50;70.51;98008.48;223754;181;139680;-63
2023/07/26 10:22:34;;;;;;;5.20;2.90;;;;;;;19.40;70.74;98012.66;223823;181;136526;-62
2023/07/26 10:27:41;;;;;;;3.60;3.10;;;;;;;19.31;70.99;98013.21;223790;181;144576;-63
2023/07/26 10:32:50;;;;;;;3.30;2.50;;;;;;;19.26;70.99;98018.27;223683;181;138904;-64
2023/07/26 10:37:57;;;;;;;5.10;2.10;;;;;;;19.19;70.88;98029.29;223767;180;137625;-64
2023/07/26 10:43:24;;;;;;;47.40;39.30;;;;;;;19.15;71.25;98031.89;223663;181;143533;-62
2023/07/26 10:48:34;;;;;;;3.00;2.70;;;;;;;19.20;71.13;98035.27;223811;181;138609;-63
2023/07/26 10:53:37;;;;;;;3.40;2.10;;;;;;;19.15;71.26;98034.77;223662;181;137277;-64
2023/07/26 10:58:54;;;;;;;4.00;2.50;;;;;;;19.11;70.95;98043.16;223729;181;144947;-63
2023/07/26 11:03:58;;;;;;;1.90;1.70;;;;;;;18.97;71.27;98047.67;223648;181;138623;-63
2023/07/26 11:09:04;;;;;;;14.10;10.80;;;;;;;18.89;71.76;98054.60;223529;181;137540;-63
2023/07/26 11:14:17;;;;;;;2.80;2.10;;;;;;;18.89;71.83;98054.49;223638;182;145163;-63
2023/07/26 11:19:20;;;;;;;2.40;1.90;;;;;;;18.93;71.82;98046.67;223675;182;139130;-63
2023/07/26 11:24:27;;;;;;;2.80;1.90;;;;;;;18.90;71.81;98054.48;223682;181;137655;-63
2023/07/26 11:29:32;;;;;;;2.40;1.80;;;;;;;18.87;71.38;98064.16;223657;181;146014;-63
2023/07/26 11:34:36;;;;;;;1.60;1.50;;;;;;;18.81;71.48;98071.73;223675;181;140346;-64
2023/07/26 11:39:40;;;;;;;1.40;1.10;;;;;;;18.72;70.81;98083.49;223704;182;137633;-65
2023/07/26 11:44:44;;;;;;;1.30;0.90;;;;;;;18.63;70.00;98098.06;223703;182;145277;-65
2023/07/26 11:49:48;;;;;;;1.80;1.30;;;;;;;18.50;69.49;98104.52;223695;182;138503;-65
2023/07/26 11:54:59;;;;;;;3.10;1.30;;;;;;;18.36;69.20;98108.64;223617;181;136988;-63
2023/07/26 12:00:07;;;;;;;2.60;1.40;;;;;;;18.15;68.66;98107.98;223887;182;145319;-62
2023/07/26 12:05:25;;;;;;;2.60;1.20;;;;;;;18.02;68.66;98117.13;223682;181;138751;-63
2023/07/26 12:10:40;;;;;;;2.40;1.20;;;;;;;17.90;68.78;98123.98;223797;181;137266;-63
2023/07/26 12:16:00;;;;;;;2.10;1.30;;;;;;;17.79;69.37;98128.61;223597;181;145532;-64
2023/07/26 12:21:07;;;;;;;3.50;1.30;;;;;;;17.74;70.17;98128.54;223755;181;139516;-63
2023/07/26 12:26:31;;;;;;;6.00;3.80;;;;;;;17.79;70.21;98135.48;223684;182;137684;-61
2023/07/26 12:31:39;;;;;;;2.60;1.40;;;;;;;17.79;69.93;98140.66;223652;181;145118;-64
2023/07/26 12:36:45;;;;;;;3.90;1.40;;;;;;;17.77;70.39;98146.55;223631;181;140289;-63
2023/07/26 12:41:49;;;;;;;1.50;1.20;;;;;;;17.74;70.02;98155.63;223753;182;136963;-64
2023/07/26 12:46:52;;;;;;;72.60;58.80;;;;;;;17.75;69.51;98165.98;223699;178;145228;-62
2023/07/26 12:51:59;;;;;;;3.70;1.50;;;;;;;17.68;69.15;98171.48;223695;182;139043;-64
2023/07/26 12:57:03;;;;;;;1.80;1.00;;;;;;;17.62;68.83;98181.90;223719;181;136980;-61
2023/07/26 13:02:10;;;;;;;2.10;1.20;;;;;;;17.55;68.99;98190.54;223689;181;145598;-62
2023/07/26 13:07:20;;;;;;;2.40;1.40;;;;;;;17.45;69.26;98197.00;223747;181;139060;-62
2023/07/26 13:12:24;;;;;;;2.40;1.10;;;;;;;17.38;69.70;98202.69;223732;181;137591;-64
2023/07/26 13:17:27;;;;;;;4.20;1.10;;;;;;;17.27;70.20;98204.50;223704;181;145057;-62
2023/07/26 13:22:34;;;;;;;3.80;0.90;;;;;;;17.23;70.18;98215.16;223641;182;138999;-62
2023/07/26 13:27:42;;;;;;;3.10;1.30;;;;;;;17.11;70.07;98228.79;223676;181;139730;-62
2023/07/26 13:32:45;;;;;;;1.70;1.20;;;;;;;16.96;69.62;98238.67;223698;181;145277;-65
2023/07/26 13:37:49;;;;;;;2.20;0.80;;;;;;;16.72;69.92;98247.32;223672;181;138625;-65
2023/07/26 13:42:53;;;;;;;1.90;1.10;;;;;;;16.58;70.46;98260.67;223656;182;137343;-64
2023/07/26 13:47:57;;;;;;;2.90;0.90;;;;;;;16.40;70.74;98269.11;223809;182;145391;-65
2023/07/26 13:53:01;;;;;;;1.90;0.80;;;;;;;16.23;71.43;98276.89;223631;181;139031;-64
2023/07/26 14:02:08;;;;;;;2.50;1.00;;;;;;;16.32;72.09;98279.39;221243;193;666223;-63
2023/07/26 14:07:13;;;;;;;1.70;1.00;;;;;;;16.28;72.12;98285.35;223510;181;136701;-62
2023/07/26 14:12:17;;;;;;;3.30;1.40;;;;;;;16.19;72.65;98296.82;223625;182;145784;-63
2023/07/26 14:17:20;;;;;;;2.30;1.00;;;;;;;16.19;72.97;98308.63;223565;181;139184;-62
2023/07/26 14:22:24;;;;;;;1.50;0.80;;;;;;;16.09;72.83;98316.16;223528;181;137276;-63
2023/07/26 14:27:27;;;;;;;2.30;0.90;;;;;;;16.09;73.06;98311.52;223411;215;144068;-63
2023/07/26 14:32:30;;;;;;;10.20;9.10;;;;;;;16.18;73.27;98314.04;223460;181;138324;-62
2023/07/26 14:37:34;;;;;;;2.30;1.00;;;;;;;16.21;73.21;98314.46;223548;181;136610;-63
2023/07/26 14:42:38;;;;;;;3.30;2.50;;;;;;;16.24;73.32;98320.45;223599;183;145567;-62
2023/07/26 14:47:41;;;;;;;1.80;1.30;;;;;;;16.20;73.18;98329.65;223459;181;138383;-62
2023/07/26 14:52:45;;;;;;;1.00;0.80;;;;;;;16.13;73.63;98336.61;223388;181;136852;-62
2023/07/26 14:57:49;;;;;;;2.30;0.90;;;;;;;16.14;73.75;98339.02;223383;181;145299;-63
2023/07/26 15:02:52;;;;;;;2.00;1.30;;;;;;;16.17;73.82;98342.73;223416;209;138337;-63
2023/07/26 15:07:55;;;;;;;3.40;1.40;;;;;;;16.27;73.71;98348.45;223416;181;137010;-62
2023/07/26 15:12:58;;;;;;;1.00;0.90;;;;;;;16.33;73.14;98352.37;223403;203;146125;-66
2023/07/26 15:18:02;;;;;;;2.20;0.90;;;;;;;16.26;72.60;98356.02;223572;182;138638;-64
2023/07/26 15:23:05;;;;;;;2.60;0.90;;;;;;;16.18;71.87;98366.71;223443;182;137156;-65
2023/07/26 15:28:09;;;;;;;1.50;0.80;;;;;;;16.05;71.78;98377.60;223479;204;145309;-63
2023/07/26 15:33:13;;;;;;;4.40;2.60;;;;;;;16.01;71.89;98377.20;223292;183;138421;-62
2023/07/26 15:38:17;;;;;;;55.60;43.90;;;;;;;15.99;71.77;98382.14;223409;182;137360;-62
2023/07/26 15:43:20;;;;;;;3.30;2.10;;;;;;;15.92;72.04;98380.41;223350;182;145702;-64
2023/07/26 15:48:25;;;;;;;2.10;1.40;;;;;;;15.89;72.07;98384.82;223485;193;138832;-62
2023/07/26 15:53:28;;;;;;;1.70;0.90;;;;;;;15.86;72.46;98390.84;223518;183;137333;-63
2023/07/26 15:58:32;;;;;;;2.20;1.30;;;;;;;15.83;72.50;98393.26;223442;183;145423;-63
2023/07/26 16:03:36;;;;;;;2.00;1.10;;;;;;;15.82;72.41;98395.11;223423;182;138268;-63
2023/07/26 16:08:40;;;;;;;2.30;1.10;;;;;;;15.84;72.47;98396.73;223443;182;136426;-63
2023/07/26 16:13:46;;;;;;;2.30;1.20;;;;;;;15.75;72.27;98394.19;223427;182;145136;-62
2023/07/26 16:18:49;;;;;;;2.80;1.10;;;;;;;15.68;72.77;98394.36;223430;193;138405;-63
2023/07/26 16:23:55;;;;;;;32.30;26.10;;;;;;;15.66;72.86;98396.27;223513;182;137395;-61
2023/07/26 16:28:58;;;;;;;3.10;1.30;;;;;;;15.64;73.03;98398.24;223477;183;145805;-63
2023/07/26 16:34:02;;;;;;;8.90;5.30;;;;;;;15.64;73.38;98399.12;223483;182;139795;-65
2023/07/26 16:39:06;;;;;;;3.20;1.30;;;;;;;15.72;73.20;98404.31;223519;182;137266;-63
2023/07/26 16:44:10;;;;;;;39.90;28.30;;;;;;;15.79;73.26;98409.55;223385;182;145242;-65
2023/07/26 16:49:13;;;;;;;6.80;4.10;;;;;;;15.86;73.46;98408.73;223388;182;140502;-63
2023/07/26 16:54:16;;;;;;;3.40;2.00;;;;;;;15.84;73.32;98407.08;223503;197;137260;-64
2023/07/26 16:59:19;;;;;;;4.50;1.80;;;;;;;15.79;73.42;98404.02;223405;181;146008;-63
2023/07/26 17:04:31;;;;;;;2.90;1.60;;;;;;;15.74;73.54;98407.19;223451;182;138425;-64
2023/07/26 17:09:35;;;;;;;46.20;34.90;;;;;;;15.73;73.79;98408.73;223426;182;137507;-63
2023/07/26 17:14:38;;;;;;;5.20;2.50;;;;;;;15.77;74.15;98407.95;223401;182;145785;-63
2023/07/26 17:19:41;;;;;;;6.30;2.90;;;;;;;15.89;74.01;98405.81;223367;182;139552;-64
2023/07/26 17:24:44;;;;;;;7.40;2.10;;;;;;;15.91;74.06;98412.60;223510;205;137154;-64
2023/07/26 17:29:47;;;;;;;4.30;1.80;;;;;;;15.83;74.03;98415.05;223463;182;145232;-62
2023/07/26 17:34:51;;;;;;;4.20;2.40;;;;;;;15.86;74.25;98424.48;223521;182;138399;-65
2023/07/26 17:39:54;;;;;;;6.50;3.00;;;;;;;15.86;74.33;98427.36;223423;193;141201;-63
2023/07/26 17:44:57;;;;;;;4.60;2.20;;;;;;;15.82;74.49;98431.97;223452;182;145280;-64
2023/07/26 17:50:01;;;;;;;124.40;104.40;;;;;;;15.83;74.47;98438.20;223302;182;139038;-62
2023/07/26 17:55:05;;;;;;;18.10;11.20;;;;;;;15.89;74.75;98445.16;223481;181;137438;-63
2023/07/26 18:02:08;;;;;;;3.60;2.10;;;;;;;16.04;74.77;98445.86;220621;193;665871;-62
2023/07/26 18:07:11;;;;;;;5.60;2.20;;;;;;;16.04;74.14;98445.64;223074;186;137286;-63
2023/07/26 18:12:14;;;;;;;6.70;3.80;;;;;;;16.01;74.21;98452.20;223180;208;144033;-63
2023/07/26 18:17:18;;;;;;;4.80;2.40;;;;;;;15.99;74.08;98453.53;223420;183;138724;-64
2023/07/26 18:22:22;;;;;;;4.40;2.50;;;;;;;15.98;74.23;98459.55;223448;216;136574;-63
2023/07/26 18:27:25;;;;;;;5.00;2.80;;;;;;;15.98;74.44;98464.18;223474;181;144709;-63
2023/07/26 18:32:28;;;;;;;6.50;5.40;;;;;;;16.00;74.57;98468.95;223448;182;138882;-62
2023/07/26 18:37:31;;;;;;;6.50;3.50;;;;;;;16.00;74.81;98478.95;223775;181;137454;-62
2023/07/26 18:42:35;;;;;;;33.40;22.60;;;;;;;15.95;75.25;98486.95;223829;199;143227;-63
2023/07/26 18:47:38;;;;;;;8.00;2.90;;;;;;;15.96;75.58;98487.38;222696;180;139427;-62
2023/07/26 18:52:42;;;;;;;7.10;3.80;;;;;;;15.96;75.40;98495.10;223804;181;136473;-62
2023/07/26 18:57:47;;;;;;;5.50;3.70;;;;;;;15.95;75.39;98503.66;223796;180;145154;-62
2023/07/26 19:02:52;;;;;;;6.20;3.30;;;;;;;15.93;75.50;98500.23;223590;181;138744;-62
2023/07/26 19:07:56;;;;;;;6.40;4.00;;;;;;;15.90;75.60;98501.40;223667;192;136977;-63
2023/07/26 19:12:59;;;;;;;5.40;3.20;;;;;;;15.83;75.68;98504.19;223585;181;145219;-62
2023/07/26 19:18:03;;;;;;;16.50;12.10;;;;;;;15.84;75.80;98501.94;223483;196;138784;-62
2023/07/26 19:23:06;;;;;;;7.10;4.10;;;;;;;15.90;76.00;98499.04;223459;182;137971;-62
2023/07/26 19:28:09;;;;;;;6.50;3.90;;;;;;;15.93;75.79;98503.95;223559;181;145314;-62
2023/07/26 19:33:13;;;;;;;8.00;4.10;;;;;;;15.98;75.62;98504.01;223503;181;139369;-62
2023/07/26 19:38:16;;;;;;;8.90;4.30;;;;;;;15.98;75.48;98506.76;223524;181;137119;-61
2023/07/26 19:43:19;;;;;;;7.70;4.20;;;;;;;15.92;75.51;98510.35;223546;181;146223;-62
2023/07/26 19:48:22;;;;;;;6.50;4.30;;;;;;;15.86;76.02;98512.66;223587;214;138332;-62
2023/07/26 20:02:08;;;;;;;10.60;5.50;;;;;;;16.07;75.85;98519.27;222429;188;666604;-61
2023/07/26 20:07:11;;;;;;;11.70;6.00;;;;;;;16.06;75.78;98530.62;223251;185;137394;-62
2023/07/26 20:12:14;;;;;;;11.40;5.50;;;;;;;16.02;76.00;98537.52;223388;185;143916;-61
2023/07/26 20:17:17;;;;;;;10.20;5.30;;;;;;;16.00;76.27;98536.83;223683;183;138966;-58
2023/07/26 22:25:30;;;;;;;10.50;6.50;;;;;;;15.57;77.20;98541.45;220843;192;666429;-60
2023/07/26 22:30:34;;;;;;;12.90;7.00;;;;;;;15.50;77.19;98541.13;223410;184;136394;-60
2023/07/26 22:35:37;;;;;;;10.10;6.40;;;;;;;15.39;77.40;98537.10;223369;184;144116;-60
2023/07/26 22:40:40;;;;;;;9.60;6.30;;;;;;;15.33;77.66;98543.33;223496;182;138280;-61
2023/07/26 22:45:43;;;;;;;13.10;6.90;;;;;;;15.31;77.69;98538.15;223437;184;137168;-60
2023/07/26 22:50:47;;;;;;;15.40;7.60;;;;;;;15.27;77.66;98542.67;223564;182;143982;-62
2023/07/26 22:55:57;;;;;;;12.70;6.90;;;;;;;15.24;77.68;98544.55;223543;183;138844;-61
2023/07/26 23:01:03;;;;;;;13.40;6.70;;;;;;;15.21;77.63;98550.73;223600;181;137116;-61
2023/07/26 23:06:07;;;;;;;10.10;6.20;;;;;;;15.14;77.79;98547.44;223444;182;143451;-61
2023/07/26 23:11:10;;;;;;;8.40;5.60;;;;;;;15.10;77.94;98546.69;223627;182;138347;-60
2023/07/26 23:16:13;;;;;;;9.20;6.40;;;;;;;15.09;78.05;98550.56;223575;182;137101;-61
2023/07/26 23:21:16;;;;;;;11.50;6.30;;;;;;;15.07;78.08;98545.16;223557;182;146101;-61
2023/07/26 23:26:20;;;;;;;12.40;6.70;;;;;;;15.06;78.06;98542.70;223462;181;139732;-61
2023/07/26 23:31:23;;;;;;;11.00;6.20;;;;;;;15.03;77.90;98542.48;223555;182;137247;-61
2023/07/26 23:36:27;;;;;;;6.80;5.00;;;;;;;14.99;77.94;98542.85;223594;181;147233;-62
2023/07/26 23:41:40;;;;;;;9.00;5.10;;;;;;;14.97;77.74;98535.16;223567;182;138520;-61
2023/07/26 23:46:52;;;;;;;11.80;5.20;;;;;;;15.00;77.32;98529.34;223548;181;139270;-61
2023/07/26 23:51:55;;;;;;;8.70;5.30;;;;;;;15.02;76.93;98520.42;223566;181;145184;-62
2023/07/26 23:56:58;;;;;;;11.40;5.00;;;;;;;15.03;76.80;98524.98;223590;181;138137;-60
